Time;durP1;ratioP1;P1;durP2;ratioP2;P2;SDS_P1;SDS_P2;PMS_P1;PMS_P2;Temp;Humidity;BMP_temperature;BMP_pressure;BME280_temperature;BME280_humidity;BME280_pressure;Samples;Min_cycle;Max_cycle;Signal;HPM_P1;HPM_P2
2023/12/27 00:00:43;;;;;;;5.07;1.50;;;5.70;99.90;;;;;;5186272;28;20438;-52
2023/12/27 00:03:14;;;;;;;3.50;1.13;;;5.60;99.90;;;;;;5203774;28;20454;-52
2023/12/27 00:05:45;;;;;;;8.93;2.07;;;5.40;99.90;;;;;;5184447;28;20197;-53
2023/12/27 00:08:16;;;;;;;8.00;1.90;;;5.30;99.90;;;;;;5196074;28;20186;-52
2023/12/27 00:10:46;;;;;;;13.73;1.33;;;5.30;99.90;;;;;;5184856;28;20175;-53
2023/12/27 00:13:17;;;;;;;7.90;1.80;;;5.10;99.90;;;;;;5193253;28;20241;-51
2023/12/27 00:15:48;;;;;;;8.40;1.60;;;5.00;99.90;;;;;;5192705;28;20629;-52
2023/12/27 00:18:18;;;;;;;8.70;1.70;;;4.90;99.90;;;;;;5205178;28;20223;-51
2023/12/27 00:20:49;;;;;;;8.77;1.70;;;5.00;99.90;;;;;;5185383;28;20543;-52
2023/12/27 00:23:20;;;;;;;15.70;2.13;;;4.80;99.90;;;;;;5185011;28;20306;-51
2023/12/27 00:25:51;;;;;;;5.57;1.67;;;4.80;99.90;;;;;;5184307;28;20297;-52
2023/12/27 00:28:22;;;;;;;6.50;1.80;;;4.70;99.90;;;;;;5184507;28;20527;-54
2023/12/27 00:30:52;;;;;;;4.53;1.43;;;4.70;99.90;;;;;;5182609;28;20188;-52
2023/12/27 00:33:23;;;;;;;7.33;1.50;;;4.70;99.90;;;;;;5184198;28;20203;-51
2023/12/27 00:35:54;;;;;;;3.60;1.43;;;4.70;99.90;;;;;;5184995;28;20540;-52
2023/12/27 00:38:24;;;;;;;7.30;1.70;;;4.70;99.90;;;;;;5191013;28;20191;-53
2023/12/27 00:40:55;;;;;;;7.10;1.20;;;4.70;99.90;;;;;;5188920;28;20195;-53
2023/12/27 00:43:26;;;;;;;4.33;1.27;;;4.50;99.90;;;;;;5189761;28;20671;-51
2023/12/27 00:45:57;;;;;;;19.27;2.57;;;4.50;99.90;;;;;;5212209;28;20690;-51
2023/12/27 00:48:28;;;;;;;4.57;1.43;;;4.50;99.90;;;;;;5188117;28;20655;-52
2023/12/27 00:51:00;;;;;;;11.67;1.17;;;4.50;99.90;;;;;;5204026;28;20434;-52
2023/12/27 00:53:31;;;;;;;6.43;1.37;;;4.50;99.90;;;;;;5188982;28;20207;-53
2023/12/27 00:56:02;;;;;;;8.53;1.77;;;4.40;99.90;;;;;;5188624;28;20513;-51
2023/12/27 00:58:33;;;;;;;1.50;1.23;;;4.50;99.90;;;;;;5192635;28;20454;-54
2023/12/27 01:01:04;;;;;;;8.53;1.53;;;4.40;99.90;;;;;;5188823;28;20205;-51
2023/12/27 01:03:35;;;;;;;9.07;1.73;;;4.30;99.90;;;;;;5187474;28;20480;-53
2023/12/27 01:06:07;;;;;;;5.10;2.10;;;4.30;99.90;;;;;;5194768;28;20207;-54
2023/12/27 01:08:38;;;;;;;8.73;1.60;;;4.40;99.90;;;;;;5188105;28;20198;-52
2023/12/27 01:11:08;;;;;;;11.73;1.87;;;4.30;99.90;;;;;;5203858;28;20497;-53
2023/12/27 01:13:39;;;;;;;7.90;2.07;;;4.30;99.90;;;;;;5193416;28;20230;-53
2023/12/27 01:16:10;;;;;;;9.33;1.87;;;4.30;99.90;;;;;;5204829;28;20261;-53
2023/12/27 01:18:41;;;;;;;9.93;1.87;;;4.20;99.90;;;;;;5209271;28;20213;-52
2023/12/27 01:21:13;;;;;;;5.00;1.60;;;4.30;99.90;;;;;;5205193;28;20191;-52
2023/12/27 01:23:44;;;;;;;6.90;1.63;;;4.30;99.90;;;;;;5187957;28;20341;-54
2023/12/27 01:26:15;;;;;;;7.00;2.20;;;4.40;99.90;;;;;;5203308;28;20930;-54
2023/12/27 01:28:46;;;;;;;4.20;1.20;;;4.50;99.90;;;;;;5187647;28;20184;-53
2023/12/27 01:31:16;;;;;;;24.10;1.70;;;4.60;99.90;;;;;;5195274;28;20191;-52
2023/12/27 01:33:47;;;;;;;15.43;2.23;;;4.60;99.90;;;;;;5187461;28;20217;-51
2023/12/27 01:36:19;;;;;;;6.40;1.57;;;4.70;99.90;;;;;;5188258;28;20644;-53
2023/12/27 01:38:50;;;;;;;9.10;1.80;;;4.70;99.90;;;;;;5198707;28;20681;-52
2023/12/27 01:41:20;;;;;;;10.70;1.97;;;4.80;99.90;;;;;;5203545;28;20534;-52
2023/12/27 01:43:52;;;;;;;4.03;1.20;;;4.70;99.90;;;;;;5188571;28;20243;-52
2023/12/27 01:46:22;;;;;;;15.57;1.77;;;4.70;99.90;;;;;;5187620;28;20207;-52
2023/12/27 01:48:53;;;;;;;6.53;1.90;;;4.60;99.90;;;;;;5188155;28;20807;-52
2023/12/27 01:51:25;;;;;;;10.00;1.70;;;4.50;99.90;;;;;;5198471;28;20279;-53
2023/12/27 01:54:00;;;;;;;5.43;1.70;;;4.50;99.90;;;;;;5209672;28;20215;-52
2023/12/27 01:56:31;;;;;;;9.00;1.93;;;4.40;99.90;;;;;;5198806;28;20445;-52
2023/12/27 01:59:02;;;;;;;3.07;1.67;;;4.30;99.90;;;;;;5188479;28;20456;-54
2023/12/27 02:01:33;;;;;;;4.50;1.33;;;4.30;99.90;;;;;;5188410;28;20441;-52
2023/12/27 02:04:05;;;;;;;2.10;1.10;;;4.40;99.90;;;;;;5188689;28;20684;-53
2023/12/27 02:06:36;;;;;;;5.93;1.50;;;4.30;99.90;;;;;;5186696;28;20993;-52
2023/12/27 02:09:07;;;;;;;10.23;1.83;;;4.30;99.90;;;;;;5202486;28;20530;-52
2023/12/27 02:11:38;;;;;;;3.23;1.07;;;4.20;99.90;;;;;;5203235;28;20490;-53
2023/12/27 02:14:09;;;;;;;8.37;1.83;;;4.10;99.90;;;;;;5199042;28;20291;-53
2023/12/27 02:16:40;;;;;;;2.50;1.40;;;4.20;99.90;;;;;;5193222;28;20498;-54
2023/12/27 02:19:16;;;;;;;8.73;2.07;;;4.10;99.90;;;;;;5185220;28;20210;-52
2023/12/27 02:21:52;;;;;;;9.40;2.10;;;4.10;99.90;;;;;;5196854;28;20432;-52
2023/12/27 02:24:25;;;;;;;10.87;1.87;;;4.10;99.90;;;;;;5208964;28;20452;-52
2023/12/27 02:26:56;;;;;;;18.57;1.60;;;4.10;99.90;;;;;;5195954;28;20436;-52
2023/12/27 02:29:27;;;;;;;13.90;2.30;;;4.00;99.90;;;;;;5185487;28;20435;-52
2023/12/27 02:31:58;;;;;;;6.83;1.63;;;3.90;99.90;;;;;;5204177;28;20405;-54
2023/12/27 02:34:28;;;;;;;3.83;1.37;;;4.00;99.90;;;;;;5186851;28;20225;-52
2023/12/27 02:36:59;;;;;;;4.43;1.57;;;4.00;99.90;;;;;;5186261;28;20538;-52
2023/12/27 02:39:30;;;;;;;5.47;1.20;;;3.90;99.90;;;;;;5206266;28;20183;-53
2023/12/27 02:42:00;;;;;;;5.67;2.43;;;3.90;99.90;;;;;;5185779;28;20706;-53
2023/12/27 02:44:31;;;;;;;8.93;1.67;;;3.90;99.90;;;;;;5184401;28;20204;-53
2023/12/27 02:47:02;;;;;;;3.53;2.23;;;3.90;99.90;;;;;;5186694;28;20689;-52
2023/12/27 02:49:33;;;;;;;12.37;1.57;;;3.80;99.90;;;;;;5208032;28;20194;-52
2023/12/27 02:52:04;;;;;;;11.17;1.80;;;3.80;99.90;;;;;;5186356;28;20433;-52
2023/12/27 02:54:34;;;;;;;14.63;1.30;;;3.70;99.90;;;;;;5190945;28;20221;-54
2023/12/27 02:57:05;;;;;;;6.10;1.50;;;3.70;99.90;;;;;;5200029;28;20630;-52
2023/12/27 02:59:36;;;;;;;11.43;1.90;;;3.80;99.90;;;;;;5191610;28;20673;-52
2023/12/27 03:02:06;;;;;;;7.00;1.70;;;3.80;99.90;;;;;;5189909;28;20182;-54
2023/12/27 03:04:37;;;;;;;7.40;2.50;;;3.90;99.90;;;;;;5191031;28;20550;-53
2023/12/27 03:07:08;;;;;;;3.80;1.07;;;3.80;99.90;;;;;;5204142;28;20194;-52
2023/12/27 03:09:39;;;;;;;7.10;1.63;;;3.70;99.90;;;;;;5189930;28;20191;-52
2023/12/27 03:12:09;;;;;;;23.07;3.03;;;3.80;99.90;;;;;;5200221;28;20596;-53
2023/12/27 03:14:40;;;;;;;5.47;1.50;;;3.90;99.90;;;;;;5204590;28;20270;-53
2023/12/27 03:17:14;;;;;;;6.00;2.03;;;3.90;99.90;;;;;;5186572;28;20549;-53
2023/12/27 03:19:44;;;;;;;8.80;2.50;;;3.80;99.90;;;;;;5209605;28;20195;-52
2023/12/27 03:22:15;;;;;;;5.83;1.70;;;3.80;99.90;;;;;;5189317;28;20449;-53
2023/12/27 03:24:46;;;;;;;7.53;2.10;;;3.80;99.90;;;;;;5200073;28;20700;-53
2023/12/27 03:27:16;;;;;;;7.80;1.57;;;3.80;99.90;;;;;;5200016;28;20241;-54
2023/12/27 03:29:47;;;;;;;8.13;1.90;;;3.80;99.90;;;;;;5194685;28;20197;-51
2023/12/27 03:32:18;;;;;;;10.00;1.50;;;3.80;99.90;;;;;;5184628;28;20189;-51
2023/12/27 03:34:49;;;;;;;5.40;1.00;;;3.60;99.90;;;;;;5184951;28;20680;-52
2023/12/27 03:37:19;;;;;;;5.20;1.43;;;3.60;99.90;;;;;;5185642;28;20196;-52
2023/12/27 03:39:51;;;;;;;8.30;1.90;;;3.70;99.90;;;;;;5204229;28;20252;-52
2023/12/27 03:42:22;;;;;;;9.27;2.30;;;3.60;99.90;;;;;;5204523;28;20194;-52
2023/12/27 03:44:53;;;;;;;9.23;1.87;;;3.60;99.90;;;;;;5202648;28;20552;-54
2023/12/27 03:47:23;;;;;;;6.67;1.73;;;3.50;99.90;;;;;;5184980;28;20185;-52
2023/12/27 03:49:54;;;;;;;14.50;1.67;;;3.50;99.90;;;;;;5186004;28;20441;-53
2023/12/27 03:52:25;;;;;;;5.07;1.20;;;3.60;99.90;;;;;;5186574;28;20217;-53
2023/12/27 03:54:56;;;;;;;6.87;1.53;;;3.50;99.90;;;;;;5185900;28;20178;-54
2023/12/27 03:57:27;;;;;;;10.63;1.83;;;3.50;99.90;;;;;;5195255;28;20444;-53
2023/12/27 03:59:58;;;;;;;14.50;1.53;;;3.50;99.90;;;;;;5189628;28;20723;-52
2023/12/27 04:02:28;;;;;;;8.77;1.53;;;3.50;99.90;;;;;;5185832;28;20220;-52
2023/12/27 04:04:59;;;;;;;3.77;1.10;;;3.40;99.90;;;;;;5184477;28;20575;-52
2023/12/27 04:07:30;;;;;;;9.23;1.90;;;3.40;99.90;;;;;;5189921;28;20192;-53
2023/12/27 04:10:01;;;;;;;7.20;1.57;;;3.50;99.90;;;;;;5186446;28;20277;-53
2023/12/27 04:12:32;;;;;;;8.93;2.20;;;3.40;99.90;;;;;;5201344;28;20204;-51
2023/12/27 04:15:03;;;;;;;8.80;1.50;;;3.50;99.90;;;;;;5172887;28;20939;-53
2023/12/27 04:17:34;;;;;;;9.13;1.77;;;3.50;99.90;;;;;;5184202;28;20207;-52
2023/12/27 04:20:05;;;;;;;5.60;1.43;;;3.50;99.90;;;;;;5198209;28;20460;-52
2023/12/27 04:22:36;;;;;;;8.53;1.90;;;3.50;99.90;;;;;;5190161;28;20443;-52
2023/12/27 04:25:08;;;;;;;5.47;1.77;;;3.50;99.90;;;;;;5201480;28;20456;-54
2023/12/27 04:27:39;;;;;;;4.10;1.20;;;3.40;99.90;;;;;;5199656;28;20492;-52
2023/12/27 04:30:10;;;;;;;6.60;1.50;;;3.40;99.90;;;;;;5199421;28;20421;-51
2023/12/27 04:32:41;;;;;;;5.30;1.33;;;3.40;99.90;;;;;;5191557;28;20610;-52
2023/12/27 04:35:11;;;;;;;8.53;2.27;;;3.40;99.90;;;;;;5185184;28;20433;-51
2023/12/27 04:37:42;;;;;;;7.20;1.90;;;3.50;99.90;;;;;;5187539;28;20219;-52
2023/12/27 04:40:13;;;;;;;16.03;2.63;;;3.50;99.90;;;;;;5201031;28;20657;-54
2023/12/27 04:42:44;;;;;;;6.13;1.40;;;3.50;99.90;;;;;;5188217;28;20986;-52
2023/12/27 04:45:15;;;;;;;3.30;1.40;;;3.60;99.90;;;;;;5193940;28;20714;-54
2023/12/27 04:47:45;;;;;;;5.23;1.50;;;3.60;99.90;;;;;;5184024;28;20649;-53
2023/12/27 04:50:17;;;;;;;7.23;1.90;;;3.40;99.90;;;;;;5189626;28;20660;-53
2023/12/27 04:52:48;;;;;;;5.90;2.03;;;3.40;99.90;;;;;;5183873;28;20194;-53
2023/12/27 04:55:19;;;;;;;7.93;1.80;;;3.40;99.90;;;;;;5207542;28;20811;-54
2023/12/27 04:57:50;;;;;;;8.63;2.10;;;3.40;99.90;;;;;;5183706;28;20537;-52
2023/12/27 05:00:22;;;;;;;15.23;1.97;;;3.40;99.90;;;;;;5199190;28;20193;-53
2023/12/27 05:02:53;;;;;;;3.67;1.10;;;3.40;99.90;;;;;;5185391;28;20197;-53
2023/12/27 05:05:24;;;;;;;3.97;1.27;;;3.40;99.90;;;;;;5190461;28;20810;-53
2023/12/27 05:07:55;;;;;;;10.20;2.57;;;3.40;99.90;;;;;;5187497;28;20312;-51
2023/12/27 05:10:25;;;;;;;9.70;1.50;;;3.40;99.90;;;;;;5199421;28;20231;-53
2023/12/27 05:12:56;;;;;;;11.23;1.73;;;3.40;99.90;;;;;;5185187;28;20460;-54
2023/12/27 05:15:27;;;;;;;1.67;1.20;;;3.40;99.90;;;;;;5187969;28;20183;-54
2023/12/27 05:17:58;;;;;;;5.23;1.67;;;3.30;99.90;;;;;;5188982;28;20227;-54
2023/12/27 05:20:28;;;;;;;3.00;1.40;;;3.30;99.90;;;;;;5184076;28;20181;-52
2023/12/27 05:22:59;;;;;;;5.20;2.10;;;3.30;99.90;;;;;;5185413;28;20463;-51
2023/12/27 05:25:30;;;;;;;9.77;2.20;;;3.20;99.90;;;;;;5188655;28;20205;-53
2023/12/27 05:28:00;;;;;;;5.80;1.70;;;3.30;99.90;;;;;;5197629;28;20178;-54
2023/12/27 05:30:31;;;;;;;2.30;1.23;;;3.20;99.90;;;;;;5189610;28;20184;-53
2023/12/27 05:33:02;;;;;;;5.97;1.60;;;3.10;99.90;;;;;;5190416;28;20547;-54
2023/12/27 05:35:32;;;;;;;7.07;2.20;;;3.10;99.90;;;;;;5187844;28;20213;-53
2023/12/27 05:38:03;;;;;;;12.10;2.00;;;3.10;99.90;;;;;;5198222;28;20218;-53
2023/12/27 05:40:34;;;;;;;6.33;1.30;;;3.10;99.90;;;;;;5188320;28;20217;-53
2023/12/27 05:43:05;;;;;;;15.70;2.57;;;3.00;99.90;;;;;;5195984;28;20264;-53
2023/12/27 05:45:35;;;;;;;4.20;1.53;;;3.00;99.90;;;;;;5187324;28;20208;-52
2023/12/27 05:48:07;;;;;;;4.63;1.87;;;3.10;99.90;;;;;;5186623;28;20665;-53
2023/12/27 05:50:38;;;;;;;5.80;1.60;;;3.00;99.90;;;;;;5196201;28;20420;-53
2023/12/27 05:53:09;;;;;;;7.13;2.37;;;3.00;99.90;;;;;;5201432;28;20462;-52
2023/12/27 05:55:40;;;;;;;8.43;1.87;;;3.10;99.90;;;;;;5205664;28;20194;-51
2023/12/27 05:58:11;;;;;;;8.33;1.47;;;3.10;99.90;;;;;;5201416;28;20444;-53
2023/12/27 06:00:41;;;;;;;6.07;1.53;;;3.10;99.90;;;;;;5214609;28;20243;-52
2023/12/27 06:03:12;;;;;;;13.40;1.97;;;3.10;99.90;;;;;;5201222;28;20630;-53
2023/12/27 06:05:43;;;;;;;5.00;1.30;;;3.10;99.90;;;;;;5191178;28;20219;-53
2023/12/27 06:08:15;;;;;;;9.70;2.23;;;3.00;99.90;;;;;;5191413;28;20186;-53
2023/12/27 06:10:46;;;;;;;4.90;1.70;;;3.00;99.90;;;;;;5204509;28;20203;-51
2023/12/27 06:13:18;;;;;;;11.20;2.40;;;3.10;99.90;;;;;;5188855;28;20555;-51
2023/12/27 06:15:49;;;;;;;3.60;1.40;;;3.00;99.90;;;;;;5189035;28;20956;-52
2023/12/27 06:18:21;;;;;;;4.60;2.13;;;3.00;99.90;;;;;;5187546;28;20459;-50
2023/12/27 06:20:52;;;;;;;9.50;1.47;;;3.00;99.90;;;;;;5187786;28;20251;-51
2023/12/27 06:23:22;;;;;;;7.33;1.77;;;3.00;99.90;;;;;;5206287;28;20467;-51
2023/12/27 06:25:53;;;;;;;12.00;1.93;;;3.00;99.90;;;;;;5193401;28;20201;-49
2023/12/27 06:28:24;;;;;;;19.50;2.10;;;2.90;99.90;;;;;;5187633;28;20172;-53
2023/12/27 06:30:55;;;;;;;6.57;1.73;;;3.00;99.90;;;;;;5187559;28;20455;-51
2023/12/27 06:33:26;;;;;;;6.40;2.27;;;2.90;99.90;;;;;;5188325;28;20205;-52
2023/12/27 06:35:57;;;;;;;8.30;1.50;;;3.00;99.90;;;;;;5186830;28;20259;-50
2023/12/27 06:38:28;;;;;;;4.90;1.40;;;2.90;99.90;;;;;;5204557;28;21044;-50
2023/12/27 06:41:00;;;;;;;5.07;1.80;;;2.90;99.90;;;;;;5186111;28;20186;-49
2023/12/27 06:43:31;;;;;;;4.00;1.13;;;2.90;99.90;;;;;;5188582;28;20470;-52
2023/12/27 06:46:02;;;;;;;5.27;1.90;;;2.90;99.90;;;;;;5187181;28;20481;-51
2023/12/27 06:48:33;;;;;;;6.07;1.40;;;2.80;99.90;;;;;;5192436;28;20262;-53
2023/12/27 06:51:06;;;;;;;9.00;1.50;;;2.80;99.90;;;;;;5196350;28;20191;-50
2023/12/27 06:53:37;;;;;;;7.60;2.23;;;2.70;99.90;;;;;;5191123;28;21004;-51
2023/12/27 06:56:08;;;;;;;4.87;1.73;;;2.70;99.90;;;;;;5189183;28;20470;-51
2023/12/27 06:58:39;;;;;;;3.80;1.10;;;2.80;99.90;;;;;;5202937;28;20649;-51
2023/12/27 07:01:11;;;;;;;17.57;2.33;;;2.80;99.90;;;;;;5190717;28;20792;-52
2023/12/27 07:03:42;;;;;;;7.07;2.13;;;2.80;99.90;;;;;;5186882;28;20579;-51
2023/12/27 07:06:13;;;;;;;3.17;1.60;;;2.80;99.90;;;;;;5188266;28;20455;-51
2023/12/27 07:08:44;;;;;;;9.57;2.10;;;2.80;99.90;;;;;;5189256;28;20645;-50
2023/12/27 07:11:18;;;;;;;11.60;2.50;;;2.80;99.90;;;;;;5187618;28;20518;-52
2023/12/27 07:13:49;;;;;;;9.07;2.57;;;2.80;99.90;;;;;;5188489;28;20302;-51
2023/12/27 07:16:20;;;;;;;9.60;3.00;;;2.70;99.90;;;;;;5184864;28;20522;-50
2023/12/27 07:18:51;;;;;;;8.00;2.00;;;2.70;99.90;;;;;;5192842;28;20184;-53
2023/12/27 07:21:21;;;;;;;14.80;2.03;;;2.60;99.90;;;;;;5182600;28;20191;-50
2023/12/27 07:23:52;;;;;;;2.40;1.70;;;2.70;99.90;;;;;;5188077;28;20224;-51
2023/12/27 07:26:23;;;;;;;12.37;2.10;;;2.70;99.90;;;;;;5186755;28;20204;-53
2023/12/27 07:28:54;;;;;;;12.00;1.53;;;2.70;99.90;;;;;;5185751;28;20181;-51
2023/12/27 07:31:25;;;;;;;6.90;1.80;;;2.80;99.90;;;;;;5191398;28;20208;-50
2023/12/27 07:33:55;;;;;;;1.90;1.50;;;2.70;99.90;;;;;;5201217;28;20283;-51
2023/12/27 07:36:26;;;;;;;5.27;1.73;;;2.60;99.90;;;;;;5202251;28;20576;-50
2023/12/27 07:38:57;;;;;;;4.87;2.20;;;2.70;99.90;;;;;;5201060;28;20185;-54
2023/12/27 07:41:27;;;;;;;4.77;1.50;;;2.70;99.90;;;;;;5194578;28;20179;-51
2023/12/27 07:43:58;;;;;;;3.40;1.50;;;2.70;99.90;;;;;;5191462;28;20207;-54
2023/12/27 07:46:29;;;;;;;6.10;1.70;;;2.70;99.90;;;;;;5175505;28;20307;-51
2023/12/27 07:49:00;;;;;;;1.70;1.50;;;2.80;99.90;;;;;;5178053;28;20188;-49
2023/12/27 07:51:30;;;;;;;4.40;1.97;;;2.80;99.90;;;;;;5197107;28;20177;-52
2023/12/27 07:54:01;;;;;;;3.97;1.97;;;2.80;99.90;;;;;;5200337;28;20301;-49
2023/12/27 07:56:34;;;;;;;8.53;1.77;;;2.80;99.90;;;;;;5183707;28;20195;-51
2023/12/27 07:59:05;;;;;;;10.40;2.13;;;2.90;99.90;;;;;;5199684;28;20248;-51
2023/12/27 08:01:36;;;;;;;6.07;1.87;;;2.90;99.90;;;;;;5181976;28;20869;-49
2023/12/27 08:04:06;;;;;;;3.03;1.47;;;3.00;99.90;;;;;;5185129;28;20207;-51
2023/12/27 08:06:38;;;;;;;2.27;1.40;;;3.00;99.90;;;;;;5170713;28;20921;-50
2023/12/27 08:09:10;;;;;;;5.70;2.40;;;3.00;99.90;;;;;;5179958;28;20329;-52
2023/12/27 08:11:40;;;;;;;5.77;1.90;;;3.10;99.90;;;;;;5186003;28;20428;-52
2023/12/27 08:14:11;;;;;;;6.20;1.87;;;3.00;99.90;;;;;;5205864;28;20474;-53
2023/12/27 08:16:42;;;;;;;8.63;1.43;;;3.00;99.90;;;;;;5197118;28;20274;-53
2023/12/27 08:19:14;;;;;;;8.00;1.93;;;3.10;99.90;;;;;;5180876;28;20719;-54
2023/12/27 08:21:44;;;;;;;18.17;1.67;;;3.10;99.90;;;;;;5204948;28;20428;-53
2023/12/27 08:24:15;;;;;;;1.83;1.47;;;3.10;99.90;;;;;;5182588;28;20215;-53
2023/12/27 08:26:46;;;;;;;10.43;2.97;;;3.20;99.90;;;;;;5182624;28;20633;-54
2023/12/27 08:29:17;;;;;;;3.27;1.73;;;3.20;99.90;;;;;;5180013;28;20183;-54
2023/12/27 08:31:47;;;;;;;8.33;1.40;;;3.30;99.90;;;;;;5180669;28;20438;-52
2023/12/27 08:34:19;;;;;;;8.73;2.60;;;3.40;99.90;;;;;;5181454;28;20209;-51
2023/12/27 08:36:50;;;;;;;15.33;2.00;;;3.40;99.90;;;;;;5180841;28;20542;-55
2023/12/27 08:39:20;;;;;;;8.30;1.63;;;3.50;99.90;;;;;;5179775;28;20452;-51
2023/12/27 08:41:51;;;;;;;6.93;2.03;;;3.50;99.90;;;;;;5167973;28;20208;-53
2023/12/27 08:44:21;;;;;;;10.80;2.20;;;3.60;99.90;;;;;;5174473;28;20789;-52
2023/12/27 08:46:52;;;;;;;5.80;1.13;;;3.70;99.90;;;;;;5178621;28;20308;-53
2023/12/27 08:49:25;;;;;;;3.40;1.63;;;3.70;99.90;;;;;;5178561;28;20189;-51
2023/12/27 08:51:56;;;;;;;18.10;1.73;;;3.80;99.90;;;;;;5180411;28;20190;-52
2023/12/27 08:54:26;;;;;;;8.13;1.60;;;3.90;99.90;;;;;;5192074;28;20462;-53
2023/12/27 08:56:57;;;;;;;7.13;1.30;;;3.90;99.90;;;;;;5187585;28;20189;-53
2023/12/27 08:59:28;;;;;;;3.47;2.00;;;4.00;99.90;;;;;;5196380;28;20670;-52
2023/12/27 09:01:58;;;;;;;5.57;1.97;;;4.10;99.90;;;;;;5181394;28;20202;-52
2023/12/27 09:04:30;;;;;;;10.10;1.50;;;4.10;99.90;;;;;;5194713;28;20490;-53
2023/12/27 09:07:00;;;;;;;6.23;2.10;;;4.10;99.90;;;;;;5199954;28;20244;-52
2023/12/27 09:09:31;;;;;;;9.80;2.20;;;4.10;99.90;;;;;;5198756;28;20902;-51
2023/12/27 09:12:04;;;;;;;3.30;1.67;;;4.10;99.90;;;;;;5183686;28;20183;-53
2023/12/27 09:14:38;;;;;;;5.40;2.03;;;4.00;99.90;;;;;;5183824;28;20302;-52
2023/12/27 09:17:09;;;;;;;3.70;1.47;;;4.10;99.90;;;;;;5193792;28;20452;-51
2023/12/27 09:19:39;;;;;;;8.37;1.53;;;4.00;99.90;;;;;;5195013;28;20493;-53
2023/12/27 09:22:10;;;;;;;6.50;2.13;;;4.10;99.90;;;;;;5183446;28;20194;-52
2023/12/27 09:24:43;;;;;;;12.57;2.53;;;4.00;99.90;;;;;;5184935;28;20215;-52
2023/12/27 09:27:17;;;;;;;1.90;1.70;;;4.10;99.90;;;;;;5205305;28;20225;-52
2023/12/27 09:29:48;;;;;;;11.67;2.10;;;4.10;99.90;;;;;;5190908;28;20443;-52
2023/12/27 09:32:19;;;;;;;5.10;1.80;;;4.10;99.90;;;;;;5197529;28;20953;-52
2023/12/27 09:34:49;;;;;;;10.97;2.77;;;4.10;99.90;;;;;;5198198;28;20210;-52
2023/12/27 09:37:20;;;;;;;12.63;2.40;;;4.10;99.90;;;;;;5189813;28;20736;-53
2023/12/27 09:39:50;;;;;;;8.90;2.00;;;4.20;99.90;;;;;;5180435;28;20203;-52
2023/12/27 09:42:21;;;;;;;3.27;1.20;;;4.20;99.90;;;;;;5199342;28;20179;-52
2023/12/27 09:44:52;;;;;;;14.47;3.23;;;4.30;99.90;;;;;;5179826;28;20273;-54
2023/12/27 09:47:25;;;;;;;10.43;1.87;;;4.30;99.90;;;;;;5187368;28;20211;-54
2023/12/27 09:49:58;;;;;;;6.67;2.20;;;4.40;99.90;;;;;;5199069;28;20438;-54
2023/12/27 09:52:30;;;;;;;2.80;2.07;;;4.40;99.90;;;;;;5185984;28;20525;-53
2023/12/27 09:55:01;;;;;;;7.93;2.30;;;4.50;99.90;;;;;;5189047;28;20746;-53
2023/12/27 09:57:33;;;;;;;6.20;2.17;;;4.60;99.90;;;;;;5183051;28;20432;-52
2023/12/27 10:00:05;;;;;;;14.57;3.00;;;4.70;99.90;;;;;;5196310;28;20806;-52
2023/12/27 10:02:40;;;;;;;8.47;2.13;;;4.70;99.90;;;;;;5184332;28;20439;-53
2023/12/27 10:05:22;;;;;;;5.10;1.77;;;4.80;99.90;;;;;;5180515;28;20461;-52
2023/12/27 10:07:53;;;;;;;13.30;2.30;;;4.90;99.90;;;;;;5191804;28;20537;-52
2023/12/27 10:10:26;;;;;;;13.07;2.23;;;4.90;99.90;;;;;;5179822;28;20422;-52
2023/12/27 10:12:59;;;;;;;5.97;1.80;;;4.90;99.90;;;;;;5184235;28;20457;-53
2023/12/27 10:15:30;;;;;;;5.23;1.73;;;4.90;99.90;;;;;;5184311;28;20469;-53
2023/12/27 10:18:00;;;;;;;1.80;1.50;;;4.90;99.90;;;;;;5192159;28;20470;-52
2023/12/27 10:20:38;;;;;;;5.93;1.73;;;5.00;99.90;;;;;;5183820;28;20188;-54
2023/12/27 10:23:08;;;;;;;5.60;2.40;;;5.00;99.90;;;;;;5184879;28;20550;-52
2023/12/27 10:25:40;;;;;;;9.13;2.00;;;5.00;99.90;;;;;;5184726;28;20447;-51
2023/12/27 10:28:10;;;;;;;7.50;2.30;;;5.10;99.90;;;;;;5185534;28;20176;-52
2023/12/27 10:30:41;;;;;;;3.67;2.10;;;5.10;99.90;;;;;;5188770;28;20469;-54
2023/12/27 10:33:12;;;;;;;12.83;2.43;;;5.10;99.90;;;;;;5182559;28;20200;-54
2023/12/27 10:35:43;;;;;;;5.57;1.97;;;5.10;99.90;;;;;;5197120;28;20180;-53
2023/12/27 10:38:15;;;;;;;10.40;2.50;;;5.10;99.90;;;;;;5179136;28;20435;-54
2023/12/27 10:40:45;;;;;;;8.83;2.60;;;5.10;99.90;;;;;;5197511;28;20199;-53
2023/12/27 10:43:16;;;;;;;3.03;1.83;;;5.10;99.90;;;;;;5189136;28;20819;-54
2023/12/27 10:45:47;;;;;;;9.50;2.70;;;5.10;99.90;;;;;;5183205;28;20216;-54
2023/12/27 10:48:20;;;;;;;7.00;2.47;;;5.10;99.90;;;;;;5183849;28;20179;-54
2023/12/27 10:50:52;;;;;;;4.57;1.83;;;5.10;99.90;;;;;;5182704;28;20188;-52
2023/12/27 10:53:25;;;;;;;13.17;1.87;;;5.10;99.90;;;;;;5184223;28;20566;-53
2023/12/27 10:55:59;;;;;;;11.00;2.13;;;5.10;99.90;;;;;;5167810;28;20549;-54
2023/12/27 10:58:33;;;;;;;7.40;1.80;;;5.10;99.90;;;;;;5184955;28;20439;-53
2023/12/27 11:01:04;;;;;;;11.07;3.47;;;5.20;99.90;;;;;;5198219;28;20433;-54
2023/12/27 11:03:36;;;;;;;7.73;2.40;;;5.20;99.90;;;;;;5195647;28;20821;-54
2023/12/27 11:06:07;;;;;;;8.43;2.47;;;5.20;99.90;;;;;;5181355;28;20208;-53
2023/12/27 11:08:40;;;;;;;4.90;2.50;;;5.30;99.90;;;;;;5183014;28;20447;-53
2023/12/27 11:11:13;;;;;;;11.53;2.70;;;5.30;99.90;;;;;;5185885;28;20783;-52
2023/12/27 11:13:45;;;;;;;10.70;3.17;;;5.40;99.90;;;;;;5185787;28;20471;-53
2023/12/27 11:16:17;;;;;;;3.80;2.20;;;5.40;99.90;;;;;;5183552;28;20439;-54
2023/12/27 11:18:50;;;;;;;10.63;2.60;;;5.50;99.90;;;;;;5200539;28;20478;-54
2023/12/27 11:21:21;;;;;;;6.50;2.20;;;5.50;99.90;;;;;;5187201;28;20435;-52
2023/12/27 11:23:52;;;;;;;8.00;3.50;;;5.50;99.90;;;;;;5187404;28;20649;-53
2023/12/27 11:26:23;;;;;;;6.73;2.20;;;5.50;99.90;;;;;;5190833;28;20573;-53
2023/12/27 11:28:53;;;;;;;9.00;2.53;;;5.50;99.90;;;;;;5193347;28;20184;-53
2023/12/27 11:31:25;;;;;;;11.03;2.27;;;5.60;99.90;;;;;;5184307;28;20187;-54
2023/12/27 11:33:55;;;;;;;3.43;1.90;;;5.60;99.90;;;;;;5197672;28;20210;-53
2023/12/27 11:36:28;;;;;;;10.33;2.53;;;5.60;99.90;;;;;;5181985;28;20833;-53
2023/12/27 11:39:14;;;;;;;5.10;2.00;;;5.60;99.90;;;;;;5182666;28;20252;-52
2023/12/27 11:41:45;;;;;;;11.43;2.80;;;5.60;99.90;;;;;;5188207;28;20434;-53
2023/12/27 11:44:17;;;;;;;10.07;2.90;;;5.50;99.90;;;;;;5198405;28;20759;-54
2023/12/27 11:46:47;;;;;;;7.13;3.53;;;5.50;99.90;;;;;;5198214;28;20205;-53
2023/12/27 11:49:19;;;;;;;5.80;2.63;;;5.50;99.90;;;;;;5185848;28;20519;-51
2023/12/27 11:51:51;;;;;;;6.43;2.83;;;5.50;99.90;;;;;;5197728;28;20181;-53
2023/12/27 11:54:24;;;;;;;11.17;3.13;;;5.50;99.90;;;;;;5180005;28;20466;-54
2023/12/27 11:56:55;;;;;;;12.53;3.43;;;5.60;99.90;;;;;;5176987;28;20435;-53
2023/12/27 11:59:27;;;;;;;13.70;5.37;;;5.50;99.90;;;;;;5180135;28;20442;-53
2023/12/27 12:02:00;;;;;;;8.33;3.77;;;5.60;99.90;;;;;;5171340;28;20435;-53
2023/12/27 12:04:50;;;;;;;8.77;3.00;;;5.50;99.90;;;;;;5192727;28;20533;-55
2023/12/27 12:07:47;;;;;;;7.57;3.30;;;5.60;99.90;;;;;;5191339;28;20516;-54
2023/12/27 12:10:22;;;;;;;5.50;2.20;;;5.40;99.90;;;;;;5184678;28;20469;-52
2023/12/27 12:12:55;;;;;;;7.73;2.83;;;5.40;99.90;;;;;;5196049;28;20764;-52
2023/12/27 12:15:29;;;;;;;11.60;3.10;;;5.30;99.90;;;;;;5180356;28;20529;-54
2023/12/27 12:18:00;;;;;;;10.37;3.20;;;5.30;99.90;;;;;;5185773;28;20485;-55
2023/12/27 12:20:32;;;;;;;15.97;2.47;;;5.30;99.90;;;;;;5186490;28;20442;-53
2023/12/27 12:23:04;;;;;;;12.93;3.47;;;5.20;99.90;;;;;;5181452;28;20454;-52
2023/12/27 12:25:41;;;;;;;17.23;3.90;;;5.20;99.90;;;;;;5181138;28;20492;-54
2023/12/27 12:28:11;;;;;;;7.43;3.40;;;5.20;99.90;;;;;;5196296;28;20431;-53
2023/12/27 12:30:48;;;;;;;5.57;2.00;;;5.10;99.90;;;;;;5182885;28;20434;-54
2023/12/27 12:33:19;;;;;;;10.90;3.63;;;5.20;99.90;;;;;;5183238;28;20252;-53
2023/12/27 12:35:55;;;;;;;6.07;2.50;;;5.10;99.90;;;;;;5196174;28;20435;-52
2023/12/27 12:38:25;;;;;;;6.37;2.53;;;5.10;99.90;;;;;;5178396;28;20191;-53
2023/12/27 12:40:56;;;;;;;5.97;2.33;;;5.10;99.90;;;;;;5180926;28;20462;-53
2023/12/27 12:43:26;;;;;;;15.83;2.90;;;5.10;99.90;;;;;;5180317;28;20210;-53
2023/12/27 12:45:58;;;;;;;5.90;2.80;;;5.10;99.90;;;;;;5196190;28;20219;-52
2023/12/27 12:48:28;;;;;;;10.47;3.90;;;5.10;99.90;;;;;;5186157;28;20173;-54
2023/12/27 12:51:15;;;;;;;11.33;6.03;;;5.10;99.90;;;;;;5171824;28;20442;-52
2023/12/27 12:53:46;;;;;;;5.87;2.97;;;5.20;99.90;;;;;;5181130;28;20287;-53
2023/12/27 12:56:18;;;;;;;25.97;4.67;;;5.20;99.90;;;;;;5183675;28;20497;-53
2023/12/27 12:58:49;;;;;;;12.63;2.60;;;5.20;99.90;;;;;;5180197;28;20433;-53
2023/12/27 13:01:19;;;;;;;8.83;3.60;;;5.20;99.90;;;;;;5182267;28;20446;-52
2023/12/27 13:03:51;;;;;;;9.97;3.80;;;5.30;99.90;;;;;;5179851;28;20200;-52
2023/12/27 13:06:21;;;;;;;19.63;5.73;;;5.30;99.90;;;;;;5197997;28;20270;-53
2023/12/27 13:08:54;;;;;;;14.37;5.20;;;5.20;99.90;;;;;;5191429;28;20526;-51
2023/12/27 13:11:27;;;;;;;10.17;3.33;;;5.20;99.90;;;;;;5183350;28;20210;-55
2023/12/27 13:13:58;;;;;;;13.10;3.97;;;5.10;99.90;;;;;;5180022;28;20461;-53
2023/12/27 13:16:29;;;;;;;5.17;3.83;;;5.00;99.90;;;;;;5196663;28;20793;-53